Time;durP1;ratioP1;P1;durP2;ratioP2;P2;SDS_P1;SDS_P2;PMS_P1;PMS_P2;Temp;Humidity;BMP_temperature;BMP_pressure;BME280_temperature;BME280_humidity;BME280_pressure;Samples;Min_cycle;Max_cycle;Signal;HPM_P1;HPM_P2
2021/01/01 00:01:58;;;;;;;13.60;11.20;;;3.60;99.90;;;;;;5090104;28;20210;-81
2021/01/01 00:04:25;;;;;;;11.77;10.18;;;3.60;99.90;;;;;;5086460;28;20226;-82
2021/01/01 00:06:52;;;;;;;14.15;11.35;;;3.50;99.90;;;;;;5088448;28;20578;-81
2021/01/01 00:09:19;;;;;;;11.77;10.57;;;3.70;99.90;;;;;;5082203;28;20201;-82
2021/01/01 00:11:48;;;;;;;14.73;11.02;;;3.60;99.90;;;;;;5081612;28;20223;-81
2021/01/01 00:14:14;;;;;;;10.63;9.43;;;3.70;99.90;;;;;;5082049;28;20195;-81
2021/01/01 00:16:41;;;;;;;11.10;9.80;;;3.60;99.90;;;;;;5088939;28;20226;-82
2021/01/01 00:19:07;;;;;;;11.05;9.80;;;3.80;99.90;;;;;;5085480;28;20195;-81
2021/01/01 00:21:35;;;;;;;11.55;9.88;;;3.80;99.90;;;;;;5078964;28;20234;-82
2021/01/01 00:24:01;;;;;;;12.52;10.25;;;3.90;99.90;;;;;;5083252;28;20229;-80
2021/01/01 00:26:28;;;;;;;11.77;9.80;;;4.00;99.90;;;;;;5088347;28;20195;-80
2021/01/01 00:28:54;;;;;;;11.23;9.80;;;4.00;99.90;;;;;;5089165;28;20199;-81
2021/01/01 00:31:22;;;;;;;12.32;10.07;;;3.90;99.90;;;;;;5090898;28;20206;-81
2021/01/01 00:33:50;;;;;;;18.75;14.68;;;4.00;99.90;;;;;;5081429;28;20227;-81
2021/01/01 00:36:16;;;;;;;14.52;11.75;;;4.00;99.90;;;;;;5072406;28;20199;-81
2021/01/01 00:38:50;;;;;;;10.52;9.48;;;4.10;99.90;;;;;;5074879;28;20374;-81
2021/01/01 00:41:24;;;;;;;11.70;9.80;;;3.90;99.80;;;;;;5073734;28;20669;-81
2021/01/01 00:43:52;;;;;;;11.65;10.20;;;4.00;99.90;;;;;;5079746;28;20209;-80
2021/01/01 00:46:18;;;;;;;14.73;10.73;;;4.00;99.90;;;;;;5094906;28;20234;-81
2021/01/01 00:48:45;;;;;;;11.40;9.55;;;4.10;99.70;;;;;;5084945;28;20226;-81
2021/01/01 00:51:11;;;;;;;9.63;8.35;;;3.90;99.50;;;;;;5082506;28;20195;-81
2021/01/01 00:53:38;;;;;;;11.80;9.15;;;3.90;99.70;;;;;;5075283;28;20207;-81
2021/01/01 00:56:05;;;;;;;9.38;8.40;;;4.00;99.90;;;;;;5083611;28;20592;-85
2021/01/01 00:58:32;;;;;;;9.25;8.32;;;4.10;99.70;;;;;;5082071;28;20198;-82
2021/01/01 01:00:58;;;;;;;9.15;8.20;;;4.00;99.60;;;;;;5093897;28;20211;-82
2021/01/01 01:03:26;;;;;;;9.75;8.70;;;3.90;99.50;;;;;;5089092;28;20202;-83
2021/01/01 01:05:53;;;;;;;10.85;9.63;;;4.10;99.80;;;;;;5093945;28;20191;-81
2021/01/01 01:08:19;;;;;;;10.90;8.93;;;4.10;99.50;;;;;;5086883;28;20186;-82
2021/01/01 01:10:46;;;;;;;10.57;8.52;;;4.10;99.30;;;;;;5074023;28;20223;-81
2021/01/01 01:13:13;;;;;;;9.82;8.45;;;3.90;99.20;;;;;;5086928;28;20195;-82
2021/01/01 01:15:39;;;;;;;9.32;7.57;;;3.90;99.30;;;;;;5074824;28;20200;-81
2021/01/01 01:18:06;;;;;;;9.65;8.27;;;3.90;99.50;;;;;;5076828;28;20191;-81
2021/01/01 01:20:32;;;;;;;14.23;10.55;;;3.80;99.40;;;;;;5079479;28;20223;-81
2021/01/01 01:22:59;;;;;;;16.52;12.38;;;3.90;99.70;;;;;;5075663;28;20234;-81
2021/01/01 01:25:25;;;;;;;15.73;11.00;;;4.10;99.60;;;;;;5074055;28;20216;-81
2021/01/01 01:27:51;;;;;;;11.80;9.90;;;4.10;99.50;;;;;;5085221;28;20199;-81
2021/01/01 01:30:19;;;;;;;14.95;10.45;;;4.10;99.50;;;;;;5093584;28;20656;-81
2021/01/01 01:32:46;;;;;;;12.60;9.90;;;3.70;99.40;;;;;;5080161;28;20703;-81
2021/01/01 01:35:12;;;;;;;14.43;11.02;;;3.70;99.90;;;;;;5091842;28;20661;-82
2021/01/01 01:37:40;;;;;;;12.10;9.20;;;3.90;99.90;;;;;;5089116;28;20202;-82
2021/01/01 01:40:08;;;;;;;12.52;10.18;;;4.20;99.90;;;;;;5090020;28;20221;-81
2021/01/01 01:42:37;;;;;;;11.07;8.85;;;4.20;99.80;;;;;;5083490;28;20598;-81
2021/01/01 01:45:05;;;;;;;11.45;9.70;;;4.30;99.70;;;;;;5092467;28;20229;-81
2021/01/01 01:47:33;;;;;;;9.80;8.80;;;4.30;99.40;;;;;;5083206;28;20731;-81
2021/01/01 01:50:00;;;;;;;11.18;8.77;;;4.30;99.20;;;;;;5092083;28;20222;-81
2021/01/01 01:52:28;;;;;;;10.82;8.52;;;4.20;99.20;;;;;;5083207;28;20206;-82
2021/01/01 01:54:55;;;;;;;11.23;8.82;;;4.30;99.30;;;;;;5114144;28;20237;-81
2021/01/01 01:57:24;;;;;;;12.48;10.90;;;4.10;99.10;;;;;;5096898;28;20199;-81
2021/01/01 01:59:55;;;;;;;12.25;8.65;;;3.90;99.50;;;;;;5092672;28;20289;-81
2021/01/01 02:02:22;;;;;;;10.90;9.15;;;3.90;99.90;;;;;;5091168;28;20198;-81
2021/01/01 02:04:50;;;;;;;9.55;8.55;;;3.80;99.90;;;;;;5080947;28;20220;-81
2021/01/01 02:07:19;;;;;;;13.88;9.43;;;3.80;99.90;;;;;;5086228;28;20281;-81
2021/01/01 02:09:48;;;;;;;10.38;8.57;;;3.90;99.90;;;;;;5082439;28;20694;-81
2021/01/01 02:12:22;;;;;;;11.48;10.05;;;3.90;99.90;;;;;;5091155;28;20202;-81
2021/01/01 02:14:51;;;;;;;12.15;9.55;;;3.90;99.70;;;;;;5090361;28;20678;-81
2021/01/01 02:17:18;;;;;;;14.70;10.00;;;4.00;99.90;;;;;;5090519;28;20198;-81
2021/01/01 02:19:45;;;;;;;15.43;10.65;;;4.20;99.90;;;;;;5084978;28;20228;-81
2021/01/01 02:22:14;;;;;;;12.00;10.68;;;4.20;99.50;;;;;;5083746;28;20195;-82
2021/01/01 02:24:43;;;;;;;15.77;10.30;;;4.10;99.30;;;;;;5091751;28;20325;-82
2021/01/01 02:27:10;;;;;;;12.75;9.98;;;4.10;99.60;;;;;;5091851;28;20203;-81
2021/01/01 02:29:38;;;;;;;11.52;9.52;;;4.20;99.70;;;;;;5087750;28;20195;-82
2021/01/01 02:32:06;;;;;;;14.73;11.23;;;4.30;99.90;;;;;;5090240;28;20664;-81
2021/01/01 02:34:35;;;;;;;13.70;11.15;;;4.30;99.50;;;;;;5076933;28;20214;-81
2021/01/01 02:37:04;;;;;;;10.55;9.43;;;4.30;99.30;;;;;;5072151;28;20195;-81
2021/01/01 02:39:33;;;;;;;12.43;10.45;;;4.20;99.10;;;;;;5085148;28;20225;-81
2021/01/01 02:42:02;;;;;;;14.15;10.93;;;4.30;99.50;;;;;;5083725;28;20215;-82
2021/01/01 02:44:30;;;;;;;12.13;10.75;;;4.40;99.30;;;;;;5081842;28;20210;-81
2021/01/01 02:47:00;;;;;;;16.75;10.63;;;4.50;99.50;;;;;;5083088;28;20257;-81
2021/01/01 02:49:29;;;;;;;12.65;10.55;;;4.40;99.20;;;;;;5087153;28;20199;-81
2021/01/01 02:51:56;;;;;;;10.80;9.35;;;4.50;99.40;;;;;;5085848;28;20187;-81
2021/01/01 02:54:24;;;;;;;12.13;9.65;;;4.50;99.30;;;;;;5088370;28;20198;-81
2021/01/01 02:56:52;;;;;;;12.82;10.57;;;4.30;99.00;;;;;;5082754;28;20186;-81
2021/01/01 02:59:18;;;;;;;14.05;11.40;;;4.30;99.20;;;;;;5084754;28;20195;-81
2021/01/01 03:01:45;;;;;;;13.32;11.35;;;4.30;99.40;;;;;;5091480;28;20246;-81
2021/01/01 03:04:11;;;;;;;14.65;11.30;;;4.30;99.50;;;;;;5089651;28;20221;-81
2021/01/01 03:06:38;;;;;;;15.80;12.15;;;4.30;99.50;;;;;;5090628;28;20195;-81
2021/01/01 03:09:05;;;;;;;13.20;11.30;;;4.00;99.50;;;;;;5071685;28;20195;-81
2021/01/01 03:11:32;;;;;;;13.18;11.00;;;4.10;99.90;;;;;;5083930;28;20199;-81
2021/01/01 03:13:59;;;;;;;12.95;11.55;;;4.00;99.90;;;;;;5090188;28;20202;-81
2021/01/01 03:16:26;;;;;;;15.98;12.00;;;4.20;99.90;;;;;;5082387;28;20202;-80
2021/01/01 03:18:52;;;;;;;14.95;11.15;;;4.20;99.90;;;;;;5083059;28;20213;-81
2021/01/01 03:21:19;;;;;;;16.70;13.15;;;4.30;99.90;;;;;;5089962;28;20199;-81
2021/01/01 03:23:45;;;;;;;15.82;11.90;;;4.30;99.90;;;;;;5089499;28;20199;-81
2021/01/01 03:26:11;;;;;;;18.27;12.05;;;4.30;99.90;;;;;;5090733;28;20199;-81
2021/01/01 03:28:38;;;;;;;15.60;12.45;;;4.20;99.90;;;;;;5089083;28;20991;-81
2021/01/01 03:31:07;;;;;;;16.40;12.75;;;4.30;99.90;;;;;;5088010;28;20681;-81
2021/01/01 03:33:33;;;;;;;17.45;12.30;;;4.40;99.90;;;;;;5085186;28;20199;-81
2021/01/01 03:36:03;;;;;;;16.48;12.52;;;4.50;99.90;;;;;;5091635;28;20198;-81
2021/01/01 03:38:29;;;;;;;14.82;11.80;;;4.50;99.90;;;;;;5076235;28;20223;-82
2021/01/01 03:40:56;;;;;;;15.68;12.95;;;4.50;99.60;;;;;;5071081;28;20310;-81
2021/01/01 03:43:23;;;;;;;15.43;11.70;;;4.50;99.60;;;;;;5083359;28;20244;-81
2021/01/01 03:45:49;;;;;;;13.10;11.35;;;4.60;99.50;;;;;;5091269;28;20711;-81
2021/01/01 03:48:18;;;;;;;14.65;11.80;;;4.50;99.40;;;;;;5090580;28;20190;-81
2021/01/01 03:50:44;;;;;;;16.45;12.15;;;4.60;99.40;;;;;;5091093;28;20187;-81
2021/01/01 03:53:11;;;;;;;14.95;11.95;;;4.50;99.30;;;;;;5080144;28;20215;-82
2021/01/01 03:55:37;;;;;;;16.30;12.52;;;4.50;99.30;;;;;;5090903;28;20198;-82
2021/01/01 03:58:04;;;;;;;16.67;11.50;;;4.60;99.30;;;;;;5104799;28;20190;-81
2021/01/01 04:00:30;;;;;;;16.23;12.52;;;4.60;99.20;;;;;;5090420;28;20206;-81
2021/01/01 04:02:58;;;;;;;17.05;13.50;;;4.50;99.10;;;;;;5077030;28;20190;-81
2021/01/01 04:05:26;;;;;;;15.45;12.85;;;4.50;99.20;;;;;;5071025;28;20230;-81
2021/01/01 04:07:52;;;;;;;17.58;12.50;;;4.40;99.30;;;;;;5081694;28;20256;-81
2021/01/01 04:10:19;;;;;;;17.95;12.65;;;4.30;99.40;;;;;;5091202;28;20226;-81
2021/01/01 04:12:45;;;;;;;17.75;13.00;;;4.40;99.60;;;;;;5082157;28;20191;-81
2021/01/01 04:15:13;;;;;;;19.35;13.73;;;4.40;99.40;;;;;;5077079;28;20222;-81
2021/01/01 04:17:40;;;;;;;16.02;13.23;;;4.40;99.50;;;;;;5084519;28;20202;-81
2021/01/01 04:20:07;;;;;;;20.27;13.48;;;4.40;99.50;;;;;;5092872;28;20785;-81
2021/01/01 04:22:34;;;;;;;16.83;13.13;;;4.30;99.40;;;;;;5074139;28;20592;-81
2021/01/01 04:25:02;;;;;;;16.20;13.77;;;4.30;99.70;;;;;;5075965;28;20593;-81
2021/01/01 04:27:28;;;;;;;16.85;14.10;;;4.30;99.70;;;;;;5075009;28;20732;-81
2021/01/01 04:29:55;;;;;;;18.70;13.35;;;4.30;99.80;;;;;;5083367;28;20259;-81
2021/01/01 04:32:21;;;;;;;17.85;13.55;;;4.40;99.90;;;;;;5094397;28;20604;-81
2021/01/01 04:34:47;;;;;;;16.88;12.05;;;4.40;99.80;;;;;;5093353;28;20226;-81
2021/01/01 04:37:14;;;;;;;17.73;13.85;;;4.50;99.70;;;;;;5093888;28;20256;-81
2021/01/01 04:39:41;;;;;;;16.48;13.00;;;4.60;99.40;;;;;;5076573;28;20231;-81
2021/01/01 04:42:08;;;;;;;16.75;13.05;;;4.50;99.50;;;;;;5074471;28;20207;-81
2021/01/01 04:44:35;;;;;;;16.35;12.45;;;4.40;99.40;;;;;;5082202;28;20219;-81
2021/01/01 04:47:03;;;;;;;15.88;12.52;;;4.40;99.50;;;;;;5081155;28;20215;-81
2021/01/01 04:49:30;;;;;;;15.90;12.20;;;4.40;99.40;;;;;;5078829;28;20195;-81
2021/01/01 04:51:57;;;;;;;14.18;12.30;;;4.40;99.50;;;;;;5086667;28;20198;-81
2021/01/01 04:54:31;;;;;;;17.85;13.00;;;4.40;99.70;;;;;;5085094;28;20191;-81
2021/01/01 04:56:59;;;;;;;16.20;12.43;;;4.50;99.80;;;;;;5073471;28;20267;-82
2021/01/01 04:59:25;;;;;;;15.90;12.73;;;4.40;99.60;;;;;;5078370;28;20206;-81
2021/01/01 05:01:52;;;;;;;18.70;13.48;;;4.40;99.60;;;;;;5073335;28;20203;-82
2021/01/01 05:04:18;;;;;;;16.58;13.23;;;4.30;99.60;;;;;;5076936;28;20677;-81
2021/01/01 05:06:45;;;;;;;12.88;11.27;;;4.40;99.90;;;;;;5075037;28;20188;-82
2021/01/01 05:09:12;;;;;;;17.42;13.35;;;4.50;99.90;;;;;;5084487;28;20686;-82
2021/01/01 05:11:39;;;;;;;16.92;12.82;;;4.60;99.80;;;;;;5080108;28;20278;-81
2021/01/01 05:14:08;;;;;;;21.33;13.07;;;4.50;99.60;;;;;;5074478;28;20252;-81
2021/01/01 05:16:36;;;;;;;18.15;14.00;;;4.50;99.50;;;;;;5073338;28;20252;-82
2021/01/01 05:19:10;;;;;;;12.88;11.57;;;4.60;99.50;;;;;;5074087;28;20232;-82
2021/01/01 05:21:37;;;;;;;19.50;13.90;;;4.50;99.40;;;;;;5082676;28;20206;-82
2021/01/01 05:24:06;;;;;;;19.25;13.57;;;4.40;99.40;;;;;;5084338;28;20203;-82
2021/01/01 05:26:40;;;;;;;20.38;12.43;;;4.40;99.50;;;;;;5074290;28;20215;-82
2021/01/01 05:29:10;;;;;;;19.58;12.98;;;4.40;99.90;;;;;;5082877;28;20653;-82
2021/01/01 05:31:39;;;;;;;16.08;11.82;;;4.30;99.70;;;;;;5078342;28;20597;-82
2021/01/01 05:34:07;;;;;;;17.60;13.18;;;4.40;99.80;;;;;;5080213;28;20257;-82
2021/01/01 05:36:36;;;;;;;17.42;13.15;;;4.50;99.70;;;;;;5076758;28;20295;-81
2021/01/01 05:39:06;;;;;;;17.92;13.85;;;4.50;99.80;;;;;;5078653;28;20274;-82
2021/01/01 05:41:35;;;;;;;16.73;13.32;;;4.60;99.80;;;;;;5075649;28;20551;-81
2021/01/01 05:44:25;;;;;;;20.17;13.40;;;4.60;99.90;;;;;;5091121;28;20565;-82
2021/01/01 05:47:08;;;;;;;18.08;13.68;;;4.60;99.90;;;;;;5089894;28;20199;-82
2021/01/01 05:49:36;;;;;;;17.15;13.95;;;4.60;99.90;;;;;;5077159;28;20222;-81
2021/01/01 05:52:04;;;;;;;20.92;14.50;;;4.60;99.70;;;;;;5084756;28;20602;-82
2021/01/01 05:54:31;;;;;;;18.77;13.93;;;4.70;99.80;;;;;;5078388;28;20210;-82
2021/01/01 05:56:57;;;;;;;25.90;14.38;;;4.60;99.70;;;;;;5083950;28;20198;-82
2021/01/01 05:59:26;;;;;;;18.25;14.23;;;4.70;99.90;;;;;;5080197;28;20199;-81
2021/01/01 06:01:56;;;;;;;18.20;12.85;;;4.50;99.90;;;;;;5092651;28;20253;-82
2021/01/01 06:04:23;;;;;;;20.35;15.55;;;4.60;99.90;;;;;;5075697;28;20314;-81
2021/01/01 06:06:52;;;;;;;21.77;14.55;;;4.50;99.90;;;;;;5078585;28;20210;-81
2021/01/01 06:09:20;;;;;;;25.38;15.05;;;4.20;99.90;;;;;;5080466;28;20225;-82
2021/01/01 06:12:00;;;;;;;21.35;14.50;;;4.20;99.90;;;;;;5087047;28;20207;-81
2021/01/01 06:14:36;;;;;;;17.45;12.27;;;4.20;99.90;;;;;;5090696;28;20206;-81
2021/01/01 06:17:33;;;;;;;16.33;11.95;;;4.10;99.90;;;;;;5084140;28;20219;-81
2021/01/01 06:20:00;;;;;;;14.70;10.75;;;3.90;99.90;;;;;;5075518;28;20226;-81
2021/01/01 06:22:28;;;;;;;13.63;10.13;;;3.70;99.90;;;;;;5077406;28;20203;-81
2021/01/01 06:24:56;;;;;;;15.63;9.93;;;3.80;99.90;;;;;;5085141;28;20254;-81
2021/01/01 06:27:24;;;;;;;10.38;8.65;;;3.70;99.90;;;;;;5090725;28;20228;-81
2021/01/01 06:29:56;;;;;;;13.35;9.43;;;3.80;99.90;;;;;;5080893;28;20281;-81
2021/01/01 06:32:22;;;;;;;9.55;8.25;;;3.50;99.90;;;;;;5092046;28;20241;-81
2021/01/01 06:34:50;;;;;;;9.45;7.78;;;3.50;99.90;;;;;;5086738;28;20238;-81
2021/01/01 06:37:36;;;;;;;14.65;9.45;;;3.60;99.90;;;;;;5074897;28;20257;-81
2021/01/01 06:40:04;;;;;;;12.43;9.23;;;3.50;99.90;;;;;;5091324;28;20186;-81
2021/01/01 06:42:51;;;;;;;11.88;9.10;;;3.70;99.90;;;;;;5111792;28;20230;-81
2021/01/01 06:45:39;;;;;;;14.48;9.25;;;3.70;99.90;;;;;;5097920;28;20253;-81
2021/01/01 06:48:07;;;;;;;9.02;8.10;;;3.60;99.90;;;;;;5090655;28;20205;-82
2021/01/01 06:50:35;;;;;;;8.60;7.70;;;3.70;99.90;;;;;;5091379;28;20252;-82
2021/01/01 06:53:02;;;;;;;10.93;7.68;;;3.80;99.90;;;;;;5088240;28;20226;-81
2021/01/01 06:55:33;;;;;;;10.73;7.82;;;3.80;99.90;;;;;;5071434;28;20241;-81
2021/01/01 06:57:59;;;;;;;9.50;8.35;;;3.70;99.90;;;;;;5077058;28;20236;-82
2021/01/01 07:00:58;;;;;;;10.65;8.27;;;3.90;99.90;;;;;;5091436;28;20210;-81
2021/01/01 07:03:45;;;;;;;11.82;6.90;;;3.90;99.90;;;;;;5096756;28;20274;-82
2021/01/01 07:06:38;;;;;;;9.48;7.25;;;3.80;99.90;;;;;;5106471;28;20283;-81
2021/01/01 07:09:06;;;;;;;13.10;8.93;;;4.00;99.90;;;;;;5084676;28;20511;-82
2021/01/01 07:11:34;;;;;;;8.30;6.65;;;3.90;99.90;;;;;;5086984;28;20681;-82
2021/01/01 07:14:05;;;;;;;8.85;6.85;;;3.90;99.90;;;;;;5075632;28;20191;-81
2021/01/01 07:16:34;;;;;;;9.30;6.78;;;3.90;99.90;;;;;;5086651;28;20266;-82
2021/01/01 07:19:01;;;;;;;10.45;7.05;;;3.80;99.90;;;;;;5079705;28;20191;-82
2021/01/01 07:21:28;;;;;;;9.43;7.22;;;3.80;99.90;;;;;;5084480;28;20717;-82
2021/01/01 07:23:54;;;;;;;9.40;6.50;;;3.70;99.90;;;;;;5085667;28;20202;-82
2021/01/01 07:26:26;;;;;;;9.27;6.38;;;3.40;99.90;;;;;;5091143;28;20266;-81
2021/01/01 07:28:53;;;;;;;11.07;6.47;;;3.20;99.90;;;;;;5082308;28;20195;-82
2021/01/01 07:31:20;;;;;;;8.57;6.43;;;3.50;99.90;;;;;;5091288;28;20230;-81
2021/01/01 07:33:48;;;;;;;7.90;6.82;;;3.60;99.90;;;;;;5085547;28;20257;-81
2021/01/01 07:36:16;;;;;;;8.52;6.45;;;3.70;99.90;;;;;;5078258;28;20237;-82
2021/01/01 07:38:43;;;;;;;10.63;7.95;;;3.70;99.90;;;;;;5078776;28;20196;-82
2021/01/01 07:41:11;;;;;;;10.45;6.85;;;3.60;99.90;;;;;;5077392;28;20271;-82
2021/01/01 07:43:38;;;;;;;8.73;6.22;;;3.50;99.90;;;;;;5088937;28;20203;-82
2021/01/01 07:46:07;;;;;;;11.85;7.55;;;3.50;99.90;;;;;;5089881;28;20234;-81
2021/01/01 07:48:34;;;;;;;7.80;6.15;;;3.50;99.90;;;;;;5079923;28;20691;-82
2021/01/01 07:51:03;;;;;;;7.40;5.88;;;3.30;99.90;;;;;;5080629;28;20255;-82
2021/01/01 07:53:30;;;;;;;6.55;5.70;;;3.40;99.90;;;;;;5075949;28;20226;-82
2021/01/01 07:55:59;;;;;;;7.78;6.60;;;3.20;99.90;;;;;;5090972;28;20242;-82
2021/01/01 07:58:28;;;;;;;7.60;5.55;;;3.20;99.90;;;;;;5083803;28;20215;-81
2021/01/01 08:01:01;;;;;;;7.40;6.22;;;3.30;99.90;;;;;;5082741;28;20225;-81
2021/01/01 08:03:28;;;;;;;8.68;7.72;;;3.20;99.90;;;;;;5088423;28;20191;-82
2021/01/01 08:05:55;;;;;;;7.55;6.45;;;3.20;99.90;;;;;;5090010;28;20323;-82
2021/01/01 08:08:23;;;;;;;7.47;6.72;;;3.30;99.90;;;;;;5080104;28;20891;-82
2021/01/01 08:10:51;;;;;;;7.28;5.93;;;3.30;99.90;;;;;;5075088;28;20203;-82
2021/01/01 08:13:19;;;;;;;8.23;6.45;;;3.40;99.90;;;;;;5085610;28;20241;-81
2021/01/01 08:15:46;;;;;;;7.18;5.57;;;3.40;99.90;;;;;;5069919;28;20243;-82
2021/01/01 08:18:15;;;;;;;8.02;5.60;;;3.40;99.90;;;;;;5071117;28;20195;-82
2021/01/01 08:20:46;;;;;;;5.57;5.07;;;3.50;99.90;;;;;;5074718;28;20277;-82
2021/01/01 08:23:15;;;;;;;6.20;5.60;;;3.50;99.90;;;;;;5072304;28;20206;-82
2021/01/01 08:25:44;;;;;;;6.30;5.22;;;3.70;99.90;;;;;;5090528;28;20218;-82
2021/01/01 08:28:12;;;;;;;6.35;4.80;;;3.50;99.90;;;;;;5085405;28;20668;-82
2021/01/01 08:30:40;;;;;;;7.40;5.55;;;3.50;99.90;;;;;;5085518;28;20263;-83
2021/01/01 08:33:07;;;;;;;7.65;6.22;;;3.40;99.90;;;;;;5072955;28;20250;-82
2021/01/01 08:35:34;;;;;;;6.80;6.07;;;3.40;99.90;;;;;;5082713;28;20870;-82
2021/01/01 08:38:14;;;;;;;6.25;4.72;;;3.50;99.90;;;;;;5071394;28;20211;-82
2021/01/01 08:40:44;;;;;;;6.22;4.50;;;3.50;99.90;;;;;;5090174;28;20240;-82
2021/01/01 08:43:10;;;;;;;8.48;5.43;;;3.20;99.90;;;;;;5084876;28;20199;-82
2021/01/01 08:45:38;;;;;;;5.78;4.68;;;3.50;99.90;;;;;;5090407;28;20238;-82
2021/01/01 08:48:09;;;;;;;6.32;5.25;;;3.80;99.90;;;;;;5086248;28;20219;-83
2021/01/01 08:50:43;;;;;;;9.18;4.82;;;3.60;99.90;;;;;;5070426;28;20205;-82
2021/01/01 08:53:09;;;;;;;5.10;4.60;;;3.60;99.90;;;;;;5073671;28;20203;-82
2021/01/01 08:55:36;;;;;;;5.18;4.57;;;3.70;99.70;;;;;;5089832;28;20209;-83
2021/01/01 08:58:07;;;;;;;10.18;4.82;;;3.90;99.30;;;;;;5081574;28;20257;-83
2021/01/01 09:00:34;;;;;;;4.90;4.25;;;3.80;98.50;;;;;;5074199;28;20234;-83
2021/01/01 09:03:01;;;;;;;6.32;4.85;;;3.90;98.70;;;;;;5079833;28;20203;-83
2021/01/01 09:05:28;;;;;;;5.00;3.83;;;3.90;98.50;;;;;;5073229;28;20269;-82
2021/01/01 09:08:11;;;;;;;5.78;5.05;;;4.00;98.70;;;;;;5075702;28;20215;-83
2021/01/01 09:10:39;;;;;;;5.80;4.50;;;4.10;98.70;;;;;;5076976;28;20233;-83
2021/01/01 09:13:18;;;;;;;4.70;3.90;;;4.00;98.30;;;;;;5091788;28;20232;-82
2021/01/01 09:15:45;;;;;;;4.22;3.83;;;3.90;98.80;;;;;;5092785;28;20430;-82
2021/01/01 09:18:12;;;;;;;4.60;3.50;;;3.80;97.50;;;;;;5087484;28;20193;-82
2021/01/01 09:20:42;;;;;;;3.92;3.25;;;3.70;97.50;;;;;;5087654;28;20260;-82
2021/01/01 09:23:10;;;;;;;3.00;2.67;;;3.80;97.00;;;;;;5089096;28;20187;-82
2021/01/01 09:25:37;;;;;;;5.55;3.40;;;3.80;97.10;;;;;;5089856;28;20602;-82
2021/01/01 09:28:05;;;;;;;3.78;3.22;;;3.90;98.00;;;;;;5086112;28;20667;-82
2021/01/01 09:30:35;;;;;;;4.10;3.70;;;3.90;98.10;;;;;;5087621;28;20199;-82
2021/01/01 09:33:02;;;;;;;4.70;4.20;;;4.10;98.20;;;;;;5073970;28;20199;-83
2021/01/01 09:35:30;;;;;;;4.35;3.95;;;4.20;98.40;;;;;;5072433;28;20241;-82
2021/01/01 09:37:59;;;;;;;3.88;3.58;;;4.30;98.10;;;;;;5073064;28;20191;-82
2021/01/01 09:40:28;;;;;;;3.75;3.45;;;4.60;98.20;;;;;;5072757;28;20222;-82
2021/01/01 09:42:55;;;;;;;3.10;2.90;;;4.40;97.20;;;;;;5082895;28;20264;-82
2021/01/01 09:45:24;;;;;;;3.03;2.50;;;4.40;97.60;;;;;;5090313;28;20582;-82
2021/01/01 09:47:51;;;;;;;3.15;2.85;;;4.10;96.60;;;;;;5084703;28;20232;-82
2021/01/01 09:50:18;;;;;;;3.25;2.95;;;4.20;97.50;;;;;;5092559;28;20252;-82
2021/01/01 09:52:44;;;;;;;3.58;2.65;;;4.10;97.20;;;;;;5089156;28;20218;-82
2021/01/01 09:55:11;;;;;;;3.50;2.95;;;3.90;97.30;;;;;;5070930;28;20602;-83
2021/01/01 09:57:38;;;;;;;4.65;3.47;;;4.10;97.50;;;;;;5078746;28;20326;-83
2021/01/01 10:00:10;;;;;;;4.32;3.60;;;4.20;97.30;;;;;;5071268;28;20595;-82
2021/01/01 10:02:38;;;;;;;3.10;2.80;;;4.00;97.30;;;;;;5071219;28;20565;-82
2021/01/01 10:05:07;;;;;;;7.03;3.13;;;4.00;96.20;;;;;;5071450;28;20246;-82
2021/01/01 10:07:34;;;;;;;3.97;3.30;;;4.30;97.10;;;;;;5077601;28;20195;-82
2021/01/01 10:10:01;;;;;;;4.32;3.92;;;4.30;97.40;;;;;;5082275;28;20195;-82
2021/01/01 10:12:27;;;;;;;4.18;3.00;;;4.60;97.30;;;;;;5090164;28;20222;-82
2021/01/01 10:14:54;;;;;;;3.60;3.30;;;4.70;96.30;;;;;;5090158;28;20237;-82
2021/01/01 10:17:22;;;;;;;3.75;3.40;;;4.70;96.30;;;;;;5072204;28;20242;-82
2021/01/01 10:19:50;;;;;;;3.08;2.80;;;5.00;96.40;;;;;;5084958;28;20621;-82
2021/01/01 10:22:18;;;;;;;3.58;2.65;;;5.00;95.50;;;;;;5090578;28;20203;-83
2021/01/01 10:24:45;;;;;;;3.22;2.85;;;5.20;96.10;;;;;;5076156;28;20227;-83
2021/01/01 10:27:13;;;;;;;2.97;2.75;;;5.00;94.80;;;;;;5087111;28;20205;-83
2021/01/01 10:29:39;;;;;;;3.05;2.60;;;4.90;94.90;;;;;;5078348;28;20191;-83
2021/01/01 10:32:08;;;;;;;2.63;2.42;;;5.00;95.20;;;;;;5092022;28;20255;-83
2021/01/01 10:34:34;;;;;;;3.47;3.17;;;4.60;94.60;;;;;;5074693;28;20242;-83
2021/01/01 10:37:03;;;;;;;3.85;3.33;;;4.60;94.30;;;;;;5085399;28;20218;-83
2021/01/01 10:39:30;;;;;;;4.47;3.42;;;4.70;95.10;;;;;;5077730;28;20199;-83
2021/01/01 10:41:56;;;;;;;4.30;3.55;;;4.90;94.90;;;;;;5077255;28;20207;-83
2021/01/01 10:44:23;;;;;;;3.05;2.72;;;5.00;94.70;;;;;;5079718;28;20253;-83
2021/01/01 10:46:52;;;;;;;3.60;2.92;;;5.00;94.70;;;;;;5073989;28;20226;-83
2021/01/01 10:49:18;;;;;;;3.42;3.10;;;5.10;94.10;;;;;;5085654;28;20761;-83
2021/01/01 10:51:45;;;;;;;3.38;3.08;;;4.90;93.80;;;;;;5072808;28;20278;-83
2021/01/01 10:54:11;;;;;;;3.15;2.83;;;5.10;94.20;;;;;;5084173;28;20253;-83
2021/01/01 10:56:38;;;;;;;4.10;3.10;;;5.20;94.10;;;;;;5075922;28;20211;-83
2021/01/01 10:59:05;;;;;;;4.03;3.28;;;5.10;94.40;;;;;;5085358;28;20199;-83
2021/01/01 11:01:31;;;;;;;3.70;3.10;;;4.90;93.60;;;;;;5091918;28;20230;-83
2021/01/01 11:03:57;;;;;;;4.15;3.80;;;5.00;93.50;;;;;;5088039;28;20187;-83
2021/01/01 11:06:24;;;;;;;4.32;3.40;;;4.80;94.00;;;;;;5091498;28;20222;-84
2021/01/01 11:08:50;;;;;;;2.95;2.75;;;5.00;94.30;;;;;;5086715;28;20213;-83
2021/01/01 11:11:21;;;;;;;3.25;2.95;;;5.10;94.30;;;;;;5084097;28;20198;-83
2021/01/01 11:13:51;;;;;;;3.90;2.72;;;4.90;94.60;;;;;;5071396;28;20200;-83
2021/01/01 12:20:18;;;;;;;6.20;5.60;;;5.40;92.90;;;;;;5076357;28;20191;-84
2021/01/01 12:22:53;;;;;;;3.72;3.42;;;5.30;93.00;;;;;;5082628;28;20241;-82
2021/01/01 12:25:20;;;;;;;4.80;3.90;;;5.40;93.00;;;;;;5077215;28;20231;-83
2021/01/01 12:27:47;;;;;;;4.85;3.92;;;5.20;92.20;;;;;;5071674;28;20207;-82
2021/01/01 12:30:16;;;;;;;3.70;3.35;;;5.30;93.20;;;;;;5085616;28;20203;-82
2021/01/01 12:32:43;;;;;;;4.85;3.60;;;5.40;92.90;;;;;;5077564;28;20194;-82
2021/01/01 12:35:12;;;;;;;5.25;3.50;;;5.50;92.90;;;;;;5078091;28;20267;-82
2021/01/01 12:37:39;;;;;;;4.95;4.15;;;5.50;92.30;;;;;;5092271;28;20230;-82
2021/01/01 12:40:08;;;;;;;4.30;3.90;;;5.70;92.80;;;;;;5079998;28;20320;-82
2021/01/01 12:42:35;;;;;;;4.15;3.60;;;5.80;92.60;;;;;;5089735;28;20226;-82
2021/01/01 12:45:01;;;;;;;4.85;4.22;;;5.70;92.60;;;;;;5084148;28;20284;-82
2021/01/01 12:47:30;;;;;;;4.93;4.50;;;5.30;91.60;;;;;;5081458;28;20221;-82
2021/01/01 12:49:56;;;;;;;5.20;4.47;;;5.00;92.20;;;;;;5087557;28;20226;-82
2021/01/01 12:52:24;;;;;;;4.18;3.78;;;5.00;92.00;;;;;;5079183;28;20704;-82
2021/01/01 12:54:50;;;;;;;4.55;3.67;;;4.90;91.30;;;;;;5086461;28;20235;-82
2021/01/01 12:57:17;;;;;;;5.55;4.20;;;5.00;91.80;;;;;;5084771;28;20207;-82
2021/01/01 12:59:43;;;;;;;4.93;4.43;;;5.10;92.10;;;;;;5087341;28;20774;-82
2021/01/01 13:02:10;;;;;;;5.88;5.10;;;4.60;91.90;;;;;;5074128;28;20855;-81
2021/01/01 13:04:36;;;;;;;24.90;13.35;;;5.00;92.80;;;;;;5074785;28;20829;-82
2021/01/01 13:07:02;;;;;;;22.23;12.32;;;5.00;93.00;;;;;;5090183;28;20276;-82
2021/01/01 13:09:30;;;;;;;14.77;8.85;;;4.90;92.80;;;;;;5073252;28;20203;-82
2021/01/01 13:11:56;;;;;;;15.52;8.32;;;5.00;93.10;;;;;;5087580;28;20206;-82
2021/01/01 13:14:22;;;;;;;5.32;4.82;;;5.00;92.80;;;;;;5093801;28;20283;-82
2021/01/01 13:16:49;;;;;;;5.03;4.53;;;4.80;92.10;;;;;;5093208;28;20194;-82
2021/01/01 13:19:15;;;;;;;5.75;4.85;;;4.90;92.30;;;;;;5085927;28;20195;-82
2021/01/01 13:21:42;;;;;;;6.53;5.80;;;5.10;92.60;;;;;;5080826;28;20204;-82
2021/01/01 13:24:09;;;;;;;5.80;5.30;;;5.10;92.60;;;;;;5083868;28;20600;-82
2021/01/01 13:26:36;;;;;;;6.82;4.75;;;5.30;92.40;;;;;;5073734;28;20284;-82
2021/01/01 13:29:04;;;;;;;6.07;5.15;;;5.50;92.30;;;;;;5088675;28;20195;-82
2021/01/01 13:31:36;;;;;;;4.75;4.35;;;5.90;92.60;;;;;;5074060;28;20195;-82
2021/01/01 13:34:03;;;;;;;4.72;4.30;;;5.50;92.00;;;;;;5081486;28;20241;-82
2021/01/01 13:36:29;;;;;;;5.50;4.55;;;5.60;92.40;;;;;;5076756;28;20276;-83
2021/01/01 13:38:56;;;;;;;5.28;4.53;;;5.80;92.30;;;;;;5078923;28;20202;-83
2021/01/01 13:41:22;;;;;;;5.20;3.80;;;5.70;92.00;;;;;;5091453;28;20227;-82
2021/01/01 13:43:51;;;;;;;5.20;4.07;;;5.30;91.50;;;;;;5092558;28;20199;-82
2021/01/01 13:46:21;;;;;;;5.28;4.15;;;5.30;91.60;;;;;;5079313;28;20253;-82
2021/01/01 13:48:48;;;;;;;4.35;3.92;;;4.90;92.00;;;;;;5085450;28;20215;-82
2021/01/01 13:51:15;;;;;;;6.95;4.75;;;4.80;92.10;;;;;;5081927;28;20722;-82
2021/01/01 13:53:41;;;;;;;6.97;6.28;;;5.00;92.60;;;;;;5076478;28;20198;-82
2021/01/01 13:56:08;;;;;;;4.22;3.80;;;4.90;91.60;;;;;;5083585;28;20547;-83
2021/01/01 13:58:34;;;;;;;3.38;3.05;;;5.00;91.90;;;;;;5089727;28;20612;-83